createdAt,value
2017-09-22T00:01:37.375Z,65.40
2017-09-22T00:04:03.509Z,65.40
2017-09-22T00:06:29.733Z,64.90
2017-09-22T00:08:55.854Z,64.90
2017-09-22T00:11:22.027Z,65.20
2017-09-22T00:13:48.159Z,66.90
2017-09-22T00:16:14.326Z,66.60
2017-09-22T00:18:40.468Z,67.10
2017-09-22T00:21:06.618Z,65.90
2017-09-22T00:23:33.507Z,67.00
2017-09-22T00:25:59.648Z,67.00
2017-09-22T00:28:25.778Z,67.10
2017-09-22T00:30:51.920Z,67.10
2017-09-22T00:33:18.067Z,67.00
2017-09-22T00:35:44.208Z,67.60
2017-09-22T00:38:11.124Z,67.50
2017-09-22T00:40:37.279Z,67.50
2017-09-22T00:43:03.435Z,66.60
2017-09-22T00:45:29.575Z,66.70
2017-09-22T00:47:55.747Z,67.40
2017-09-22T00:52:57.370Z,67.20
2017-09-22T00:58:08.185Z,67.00
2017-09-22T01:00:34.305Z,66.80
2017-09-22T01:03:00.471Z,66.70
2017-09-22T01:05:26.661Z,66.50
2017-09-22T01:07:52.808Z,67.20
2017-09-22T01:10:18.966Z,67.30
2017-09-22T01:12:45.103Z,67.60
2017-09-22T01:15:11.266Z,67.40
2017-09-22T01:17:37.402Z,67.40
2017-09-22T01:20:03.751Z,67.30
2017-09-22T01:22:29.906Z,67.10
2017-09-22T01:24:56.039Z,67.20
2017-09-22T01:27:22.197Z,66.70
2017-09-22T01:29:51.671Z,67.00
2017-09-22T01:32:17.806Z,66.70
2017-09-22T01:34:47.338Z,66.80
2017-09-22T01:37:14.304Z,67.00
2017-09-22T01:39:40.425Z,66.90
2017-09-22T01:42:06.579Z,67.20
2017-09-22T01:44:32.695Z,66.80
2017-09-22T01:46:58.858Z,66.60
2017-09-22T01:49:24.975Z,66.60
2017-09-22T01:51:51.111Z,66.30
2017-09-22T01:54:17.985Z,66.60
2017-09-22T01:56:44.162Z,66.60
2017-09-22T01:59:10.277Z,66.70
2017-09-22T02:01:36.427Z,66.30
2017-09-22T02:04:02.558Z,66.50
2017-09-22T02:06:28.690Z,66.30
2017-09-22T02:08:54.839Z,66.60
2017-09-22T02:11:21.005Z,66.30
2017-09-22T02:13:51.523Z,66.30
2017-09-22T02:16:18.397Z,66.50
2017-09-22T02:18:44.598Z,66.50
2017-09-22T02:21:10.744Z,66.50
2017-09-22T02:23:36.886Z,67.20
2017-09-22T02:26:03.006Z,67.00
2017-09-22T02:28:30.027Z,66.80
2017-09-22T02:30:56.946Z,66.70
2017-09-22T02:33:23.099Z,66.70
2017-09-22T02:35:49.253Z,66.80
2017-09-22T02:38:15.391Z,66.80
2017-09-22T02:40:42.138Z,66.50
2017-09-22T02:43:08.275Z,66.60
2017-09-22T02:45:35.369Z,67.10
2017-09-22T02:48:01.558Z,67.20
2017-09-22T02:50:27.762Z,67.20
2017-09-22T02:52:53.870Z,67.00
2017-09-22T02:55:20.067Z,66.80
2017-09-22T02:57:46.190Z,67.20
2017-09-22T03:00:12.363Z,67.00
2017-09-22T03:02:38.491Z,66.80
2017-09-22T03:05:04.656Z,67.00
2017-09-22T03:07:30.802Z,67.10
2017-09-22T03:09:57.229Z,67.40
2017-09-22T03:12:23.449Z,67.30
2017-09-22T03:14:49.635Z,67.40
2017-09-22T03:17:15.796Z,67.30
2017-09-22T03:19:41.986Z,67.70
2017-09-22T03:22:08.122Z,67.50
2017-09-22T03:24:34.286Z,67.10
2017-09-22T03:27:00.454Z,67.10
2017-09-22T03:29:26.588Z,67.00
2017-09-22T03:31:52.742Z,67.10
2017-09-22T03:34:18.870Z,66.50
2017-09-22T03:36:45.046Z,66.30
2017-09-22T03:39:11.181Z,66.30
2017-09-22T03:41:37.351Z,66.60
2017-09-22T03:44:05.113Z,66.30
2017-09-22T03:46:31.269Z,66.30
2017-09-22T03:48:57.398Z,66.20
2017-09-22T03:51:23.574Z,66.20
2017-09-22T03:53:49.713Z,66.70
2017-09-22T03:56:15.874Z,66.70
2017-09-22T03:58:42.026Z,66.80
2017-09-22T04:01:08.203Z,66.70
2017-09-22T04:03:34.402Z,66.70
2017-09-22T04:06:01.305Z,66.50
2017-09-22T04:08:27.462Z,66.50
2017-09-22T04:10:53.618Z,66.20
2017-09-22T04:13:19.774Z,66.70
2017-09-22T04:15:45.927Z,66.60
2017-09-22T04:18:12.074Z,66.90
2017-09-22T04:20:38.216Z,66.70
2017-09-22T04:23:04.342Z,66.50
2017-09-22T04:25:30.474Z,67.20
2017-09-22T04:27:56.620Z,67.10
2017-09-22T04:30:22.775Z,67.10
2017-09-22T04:32:48.891Z,67.10
2017-09-22T04:35:15.018Z,67.50
2017-09-22T04:37:41.145Z,67.20
2017-09-22T04:40:07.294Z,67.00
2017-09-22T04:42:34.170Z,68.40
2017-09-22T04:45:00.303Z,67.60
2017-09-22T04:47:26.422Z,67.30
2017-09-22T04:49:52.572Z,67.60
2017-09-22T04:52:18.701Z,67.60
2017-09-22T04:54:44.838Z,68.50
2017-09-22T04:57:10.981Z,67.70
2017-09-22T04:59:37.121Z,67.80
2017-09-22T05:02:03.260Z,68.10
2017-09-22T05:04:29.438Z,68.30
2017-09-22T05:06:55.586Z,68.30
2017-09-22T05:09:21.723Z,68.40
2017-09-22T05:11:47.907Z,68.40
2017-09-22T05:14:14.039Z,68.40
2017-09-22T05:16:40.188Z,68.20
2017-09-22T05:19:07.071Z,68.40
2017-09-22T05:21:33.210Z,68.40
2017-09-22T05:24:00.096Z,69.30
2017-09-22T05:26:26.671Z,68.50
2017-09-22T05:28:52.862Z,68.50
2017-09-22T05:31:19.063Z,68.50
2017-09-22T05:33:45.199Z,68.40
2017-09-22T05:36:11.358Z,68.40
2017-09-22T05:38:37.488Z,68.20
2017-09-22T05:41:03.648Z,68.40
2017-09-22T05:43:47.976Z,68.20
2017-09-22T05:46:14.117Z,68.20
2017-09-22T05:48:40.257Z,68.10
2017-09-22T05:51:06.442Z,68.00
2017-09-22T05:53:32.595Z,69.50
2017-09-22T05:55:58.732Z,68.40
2017-09-22T05:58:25.627Z,65.60
2017-09-22T06:00:52.662Z,65.60
2017-09-22T06:03:18.798Z,65.80
2017-09-22T06:05:44.946Z,64.60
2017-09-22T06:08:11.087Z,63.80
2017-09-22T06:10:37.299Z,63.90
2017-09-22T06:13:03.504Z,63.10
2017-09-22T06:15:29.619Z,63.10
2017-09-22T06:17:55.835Z,63.70
2017-09-22T06:20:22.004Z,63.60
2017-09-22T06:22:48.170Z,63.10
2017-09-22T06:25:14.747Z,63.10
2017-09-22T06:27:40.978Z,63.10
2017-09-22T06:30:07.102Z,62.90
2017-09-22T06:32:33.966Z,62.80
2017-09-22T06:35:00.942Z,63.70
2017-09-22T06:37:27.112Z,63.80
2017-09-22T06:39:53.990Z,64.20
2017-09-22T06:42:20.190Z,64.10
2017-09-22T06:44:46.322Z,64.30
2017-09-22T06:47:12.491Z,64.30
2017-09-22T06:49:39.358Z,64.40
2017-09-22T06:52:05.581Z,64.40
2017-09-22T06:54:31.707Z,64.40
2017-09-22T06:56:57.843Z,64.50
2017-09-22T06:59:24.722Z,64.50
2017-09-22T07:01:50.923Z,64.50
2017-09-22T07:04:17.102Z,63.70
2017-09-22T07:06:44.903Z,63.40
2017-09-22T07:09:11.102Z,63.40
2017-09-22T07:11:37.267Z,63.40
2017-09-22T07:14:03.433Z,63.50
2017-09-22T07:16:29.567Z,63.60
2017-09-22T07:18:55.757Z,63.60
2017-09-22T07:21:21.891Z,62.80
2017-09-22T07:23:48.057Z,61.20
2017-09-22T07:26:14.219Z,61.40
2017-09-22T07:28:40.365Z,62.00
2017-09-22T07:31:07.315Z,61.80
2017-09-22T07:33:33.471Z,61.70
2017-09-22T07:35:59.639Z,61.30
2017-09-22T07:38:25.797Z,61.60
2017-09-22T07:40:51.949Z,61.00
2017-09-22T07:43:18.135Z,60.80
2017-09-22T07:45:44.274Z,60.00
2017-09-22T07:48:10.442Z,60.70
2017-09-22T07:50:37.594Z,59.40
2017-09-22T07:53:04.521Z,59.50
2017-09-22T07:55:31.453Z,59.40
2017-09-22T07:57:58.367Z,59.30
2017-09-22T08:00:24.537Z,59.30
2017-09-22T08:02:50.691Z,59.50
2017-09-22T08:05:16.846Z,59.10
2017-09-22T08:07:42.990Z,59.10
2017-09-22T08:10:09.133Z,59.20
2017-09-22T08:12:35.307Z,58.60
2017-09-22T08:15:01.446Z,58.10
2017-09-22T08:17:27.596Z,58.40
2017-09-22T08:19:54.509Z,58.40
2017-09-22T08:22:20.643Z,58.40
2017-09-22T08:24:46.803Z,58.10
2017-09-22T08:27:13.171Z,57.30
2017-09-22T08:29:39.329Z,56.70
2017-09-22T08:32:05.552Z,56.60
2017-09-22T08:34:31.708Z,56.80
2017-09-22T08:37:04.375Z,56.70
2017-09-22T08:39:30.546Z,56.70
2017-09-22T08:41:56.686Z,55.60
2017-09-22T08:44:23.066Z,56.00
2017-09-22T08:46:49.203Z,55.70
2017-09-22T08:49:15.404Z,55.40
2017-09-22T08:51:41.539Z,55.70
2017-09-22T08:54:08.444Z,54.50
2017-09-22T08:56:34.576Z,54.50
2017-09-22T08:59:01.499Z,55.20
2017-09-22T09:01:28.461Z,55.10
2017-09-22T09:03:54.615Z,55.10
2017-09-22T09:06:20.763Z,55.90
2017-09-22T09:08:46.927Z,54.90
2017-09-22T09:11:13.121Z,54.70
2017-09-22T09:13:39.268Z,53.40
2017-09-22T09:16:05.409Z,53.90
2017-09-22T09:18:32.314Z,52.40
2017-09-22T09:20:58.446Z,52.30
2017-09-22T09:23:25.334Z,52.80
2017-09-22T09:25:51.474Z,52.80
2017-09-22T09:28:17.623Z,51.60
2017-09-22T09:30:43.762Z,52.20
2017-09-22T09:33:09.927Z,51.30
2017-09-22T09:35:36.110Z,50.90
2017-09-22T09:38:02.273Z,51.10
2017-09-22T09:40:28.422Z,50.40
2017-09-22T09:42:54.568Z,49.70
2017-09-22T09:45:21.519Z,49.40
2017-09-22T09:47:47.671Z,49.40
2017-09-22T09:50:13.838Z,49.80
2017-09-22T09:52:39.991Z,49.20
2017-09-22T09:55:06.158Z,48.30
2017-09-22T09:57:32.283Z,49.70
2017-09-22T09:59:58.470Z,49.00
2017-09-22T10:02:25.375Z,48.90
2017-09-22T10:04:51.578Z,48.90
2017-09-22T10:07:17.771Z,48.00
2017-09-22T10:09:43.942Z,48.10
2017-09-22T10:12:10.850Z,48.20
2017-09-22T10:14:37.002Z,48.20
2017-09-22T10:17:03.330Z,48.30
2017-09-22T10:19:29.498Z,46.80
2017-09-22T10:21:55.645Z,47.00
2017-09-22T10:24:21.814Z,47.60
2017-09-22T10:26:47.977Z,46.50
2017-09-22T10:29:14.099Z,46.10
2017-09-22T10:31:40.257Z,46.40
2017-09-22T10:34:07.145Z,45.50
2017-09-22T10:36:33.296Z,44.80
2017-09-22T10:38:59.441Z,44.10
2017-09-22T10:41:25.602Z,44.80
2017-09-22T10:43:51.750Z,44.60
2017-09-22T10:46:18.031Z,42.90
2017-09-22T10:48:44.196Z,42.70
2017-09-22T10:51:10.351Z,41.50
2017-09-22T10:53:36.505Z,42.50
2017-09-22T10:56:02.661Z,43.20
2017-09-22T10:58:28.795Z,42.20
2017-09-22T11:00:54.950Z,41.00
2017-09-22T11:03:21.083Z,40.00
2017-09-22T11:05:47.247Z,40.90
2017-09-22T11:08:14.168Z,41.10
2017-09-22T11:10:40.314Z,41.10
2017-09-22T11:13:06.509Z,40.60
2017-09-22T11:15:33.406Z,41.50
2017-09-22T11:17:59.589Z,41.40
2017-09-22T11:20:25.710Z,40.30
2017-09-22T11:22:51.899Z,40.40
2017-09-22T11:25:18.046Z,41.10
2017-09-22T11:27:44.206Z,40.60
2017-09-22T11:30:10.395Z,40.90
2017-09-22T11:32:37.287Z,39.40
2017-09-22T11:35:03.446Z,40.10
2017-09-22T11:37:30.427Z,37.50
2017-09-22T11:39:56.590Z,37.50
2017-09-22T11:42:22.736Z,38.80
2017-09-22T11:44:48.857Z,38.00
2017-09-22T11:47:15.735Z,38.30
2017-09-22T11:49:42.644Z,38.70
2017-09-22T11:52:08.792Z,38.70
2017-09-22T11:54:34.957Z,37.10
2017-09-22T11:57:01.141Z,35.80
2017-09-22T11:59:27.270Z,37.20
2017-09-22T12:01:53.398Z,34.50
2017-09-22T12:04:19.613Z,33.80
2017-09-22T12:06:45.791Z,33.90
2017-09-22T12:09:11.928Z,34.20
2017-09-22T12:11:38.054Z,35.40
2017-09-22T12:14:04.207Z,35.50
2017-09-22T12:16:30.346Z,36.40
2017-09-22T12:18:56.502Z,35.80
2017-09-22T12:21:22.616Z,36.30
2017-09-22T12:23:49.492Z,34.20
2017-09-22T12:26:15.623Z,34.20
2017-09-22T12:28:41.808Z,34.10
2017-09-22T12:31:08.904Z,34.70
2017-09-22T12:33:35.811Z,34.10
2017-09-22T12:36:01.966Z,34.00
2017-09-22T12:38:28.179Z,33.40
2017-09-22T12:40:54.390Z,34.20
2017-09-22T12:43:20.610Z,33.40
2017-09-22T12:45:46.726Z,34.40
2017-09-22T12:48:12.889Z,35.00
2017-09-22T12:50:39.018Z,35.90
2017-09-22T12:53:05.884Z,35.50
2017-09-22T12:55:32.049Z,35.50
2017-09-22T12:57:58.172Z,35.00
2017-09-22T13:00:25.088Z,36.10
2017-09-22T13:02:51.223Z,36.10
2017-09-22T13:05:18.196Z,36.20
2017-09-22T13:07:44.367Z,36.10
2017-09-22T13:10:10.684Z,37.00
2017-09-22T13:12:36.845Z,37.30
2017-09-22T13:15:03.083Z,37.00
2017-09-22T13:17:29.234Z,37.20
2017-09-22T13:19:55.414Z,37.20
2017-09-22T13:22:22.331Z,38.10
2017-09-22T13:24:48.535Z,38.10
2017-09-22T13:27:14.674Z,39.00
2017-09-22T13:29:41.577Z,38.40
2017-09-22T13:32:07.796Z,38.30
2017-09-22T13:34:34.018Z,38.70
2017-09-22T13:37:00.188Z,38.50
2017-09-22T13:39:26.366Z,38.10
2017-09-22T13:41:53.342Z,39.10
2017-09-22T13:44:19.512Z,39.10
2017-09-22T13:46:45.687Z,39.40
2017-09-22T13:49:11.863Z,38.90
2017-09-22T13:51:38.003Z,39.40
2017-09-22T13:54:04.179Z,39.60
2017-09-22T13:56:30.314Z,39.40
2017-09-22T13:58:56.446Z,38.80
2017-09-22T14:01:22.611Z,39.00
2017-09-22T14:03:48.740Z,37.60
2017-09-22T14:06:14.979Z,39.10
2017-09-22T14:08:41.094Z,37.20
2017-09-22T14:11:07.247Z,36.90
2017-09-22T14:13:34.144Z,37.50
2017-09-22T14:16:00.319Z,37.60
2017-09-22T14:18:28.125Z,37.70
2017-09-22T14:20:59.688Z,37.70
2017-09-22T14:23:26.904Z,37.50
2017-09-22T14:25:53.068Z,38.60
2017-09-22T14:28:19.210Z,40.40
2017-09-22T14:30:45.361Z,41.20
2017-09-22T14:33:11.566Z,39.40
2017-09-22T14:35:37.766Z,40.60
2017-09-22T14:38:03.941Z,42.80
2017-09-22T14:40:30.099Z,41.10
2017-09-22T14:42:56.772Z,40.00
2017-09-22T14:45:29.557Z,39.80
2017-09-22T14:47:56.956Z,39.80
2017-09-22T14:50:23.774Z,41.00
2017-09-22T14:52:49.969Z,41.00
2017-09-22T14:55:16.139Z,42.50
2017-09-22T14:57:42.284Z,44.40
2017-09-22T15:00:09.246Z,46.00
2017-09-22T15:02:35.435Z,46.00
2017-09-22T15:05:01.629Z,47.50
2017-09-22T15:07:27.824Z,48.10
2017-09-22T15:09:53.957Z,49.30
2017-09-22T15:12:20.862Z,50.30
2017-09-22T15:14:47.002Z,50.30
2017-09-22T15:17:13.914Z,50.10
2017-09-22T15:19:50.678Z,50.10
2017-09-22T15:22:17.570Z,48.90
2017-09-22T15:24:43.706Z,48.90
2017-09-22T15:27:09.866Z,48.80
2017-09-22T15:29:35.986Z,48.10
2017-09-22T15:32:02.124Z,50.20
2017-09-22T15:34:28.264Z,50.20
2017-09-22T15:36:55.140Z,50.10
2017-09-22T15:39:21.286Z,49.70
2017-09-22T15:41:47.437Z,51.90
2017-09-22T15:44:13.576Z,51.30
2017-09-22T15:46:39.729Z,52.60
2017-09-22T15:49:05.858Z,52.40
2017-09-22T15:51:32.759Z,53.70
2017-09-22T15:53:58.890Z,53.60
2017-09-22T15:56:25.774Z,52.50
2017-09-22T15:58:51.905Z,52.40
2017-09-22T16:01:18.171Z,52.10
2017-09-22T16:03:45.124Z,54.20
2017-09-22T16:09:14.397Z,53.70
2017-09-22T16:11:40.534Z,53.20
2017-09-22T16:14:06.683Z,53.10
2017-09-22T16:16:32.863Z,53.70
2017-09-22T16:18:59.018Z,53.50
2017-09-22T16:21:25.159Z,54.20
2017-09-22T16:23:51.282Z,53.20
2017-09-22T16:26:17.408Z,54.10
2017-09-22T16:28:43.566Z,54.50
2017-09-22T16:31:09.726Z,55.00
2017-09-22T16:33:35.864Z,54.40
2017-09-22T16:36:02.048Z,55.20
2017-09-22T16:38:28.178Z,55.00
2017-09-22T16:40:54.314Z,56.70
2017-09-22T16:43:20.476Z,55.40
2017-09-22T16:45:46.606Z,56.20
2017-09-22T16:48:12.763Z,56.40
2017-09-22T16:50:38.908Z,55.90
2017-09-22T16:53:05.047Z,55.90
2017-09-22T16:55:31.915Z,55.70
2017-09-22T16:57:58.509Z,55.70
2017-09-22T17:00:24.695Z,56.00
2017-09-22T17:02:50.892Z,56.50
2017-09-22T17:05:17.077Z,56.80
2017-09-22T17:07:44.048Z,56.80
2017-09-22T17:10:10.939Z,56.70
2017-09-22T17:12:37.155Z,56.70
2017-09-22T17:15:03.311Z,57.60
2017-09-22T17:17:29.849Z,56.70
2017-09-22T17:19:56.041Z,56.50
2017-09-22T17:22:22.220Z,56.50
2017-09-22T17:24:48.400Z,56.10
2017-09-22T17:27:14.560Z,56.40
2017-09-22T17:29:40.707Z,56.80
2017-09-22T17:32:07.674Z,58.30
2017-09-22T17:34:33.844Z,58.30
2017-09-22T17:37:00.742Z,58.50
2017-09-22T17:39:26.918Z,58.50
2017-09-22T17:41:53.072Z,58.10
2017-09-22T17:44:19.232Z,58.10
2017-09-22T17:46:45.378Z,58.00
2017-09-22T17:49:11.519Z,58.00
2017-09-22T17:51:37.682Z,57.90
2017-09-22T17:54:03.859Z,58.10
2017-09-22T17:56:30.743Z,59.00
2017-09-22T17:58:57.175Z,58.90
2017-09-22T18:01:23.324Z,59.10
2017-09-22T18:03:50.218Z,59.40
2017-09-22T18:06:16.435Z,59.40
2017-09-22T18:08:42.651Z,59.90
2017-09-22T18:11:08.799Z,60.50
2017-09-22T18:13:34.984Z,61.30
2017-09-22T18:16:01.137Z,61.90
2017-09-22T18:18:27.319Z,62.30
2017-09-22T18:20:53.543Z,62.40
2017-09-22T18:23:20.511Z,62.30
2017-09-22T18:25:46.637Z,62.30
2017-09-22T18:28:12.794Z,63.10
2017-09-22T18:30:39.020Z,63.30
2017-09-22T18:33:05.183Z,63.10
2017-09-22T18:35:31.335Z,63.30
2017-09-22T18:37:58.805Z,64.00
2017-09-22T18:40:24.967Z,64.00
2017-09-22T18:42:51.847Z,63.40
2017-09-22T18:45:18.013Z,64.20
2017-09-22T18:47:44.176Z,63.40
2017-09-22T18:50:10.343Z,63.50
2017-09-22T18:52:36.573Z,63.20
2017-09-22T18:55:02.759Z,63.20
2017-09-22T18:57:28.879Z,63.30
2017-09-22T18:59:55.017Z,63.50
2017-09-22T19:02:21.143Z,63.40
2017-09-22T19:04:48.043Z,64.00
2017-09-22T19:07:14.169Z,63.90
2017-09-22T19:09:40.311Z,64.20
2017-09-22T19:12:07.362Z,65.30
2017-09-22T19:14:34.256Z,64.40
2017-09-22T19:17:01.114Z,65.10
2017-09-22T19:19:27.286Z,65.10
2017-09-22T19:21:53.571Z,65.10
2017-09-22T19:24:19.753Z,64.50
2017-09-22T19:26:50.940Z,64.10
2017-09-22T19:29:17.114Z,64.10
2017-09-22T19:31:43.415Z,64.90
2017-09-22T19:34:09.760Z,65.00
2017-09-22T19:36:36.651Z,66.20
2017-09-22T19:39:02.891Z,66.20
2017-09-22T19:41:29.785Z,65.40
2017-09-22T19:43:56.110Z,65.40
2017-09-22T19:46:22.283Z,65.80
2017-09-22T19:48:48.455Z,65.20
2017-09-22T19:51:14.657Z,64.50
2017-09-22T19:53:41.531Z,64.70
2017-09-22T19:56:07.696Z,64.70
2017-09-22T19:58:33.890Z,65.30
2017-09-22T20:01:00.039Z,65.60
2017-09-22T20:03:26.175Z,66.00
2017-09-22T20:05:52.330Z,65.80
2017-09-22T20:08:28.594Z,66.20
2017-09-22T20:10:54.731Z,66.50
2017-09-22T20:13:20.856Z,65.70
2017-09-22T20:15:46.987Z,66.30
2017-09-22T20:18:13.159Z,66.50
2017-09-22T20:20:39.307Z,65.70
2017-09-22T20:23:05.423Z,65.70
2017-09-22T20:25:31.572Z,65.70
2017-09-22T20:27:58.492Z,65.80
2017-09-22T20:30:25.415Z,66.00
2017-09-22T20:32:51.550Z,66.00
2017-09-22T20:35:17.687Z,65.60
2017-09-22T20:37:43.805Z,65.90
2017-09-22T20:40:09.992Z,65.40
2017-09-22T20:42:36.098Z,66.40
2017-09-22T20:45:02.367Z,67.00
2017-09-22T20:47:28.480Z,66.60
2017-09-22T20:49:54.662Z,65.80
2017-09-22T20:52:20.810Z,65.60
2017-09-22T20:54:46.932Z,66.10
2017-09-22T20:57:13.074Z,66.80
2017-09-22T20:59:39.189Z,66.50
2017-09-22T21:02:05.311Z,66.50
2017-09-22T21:04:31.431Z,66.40
2017-09-22T21:06:57.566Z,65.80
2017-09-22T21:09:23.687Z,66.40
2017-09-22T21:11:49.818Z,65.90
2017-09-22T21:14:16.672Z,66.50
2017-09-22T21:16:42.844Z,66.50
2017-09-22T21:19:08.978Z,66.50
2017-09-22T21:21:35.892Z,66.50
2017-09-22T21:24:02.010Z,66.50
2017-09-22T21:26:28.891Z,66.50
2017-09-22T21:28:55.027Z,66.50
2017-09-22T21:31:21.171Z,66.20
2017-09-22T21:33:48.036Z,66.90
2017-09-22T21:36:14.188Z,66.10
2017-09-22T21:38:40.302Z,66.10
2017-09-22T21:41:06.450Z,65.70
2017-09-22T21:43:32.572Z,65.30
2017-09-22T21:45:58.726Z,65.80
2017-09-22T21:48:24.918Z,65.70
2017-09-22T21:50:51.062Z,65.60
2017-09-22T21:53:17.928Z,65.90
2017-09-22T21:55:44.072Z,66.00
2017-09-22T21:58:10.236Z,66.00
2017-09-22T22:00:36.398Z,65.90
2017-09-22T22:03:08.672Z,65.70
2017-09-22T22:05:34.830Z,66.20
2017-09-22T22:08:00.943Z,66.20
2017-09-22T22:10:27.812Z,66.40
2017-09-22T22:12:53.986Z,66.40
2017-09-22T22:15:20.112Z,66.40
2017-09-22T22:17:47.016Z,65.90
2017-09-22T22:20:13.119Z,65.90
2017-09-22T22:22:39.255Z,66.20
2017-09-22T22:25:05.367Z,66.20
2017-09-22T22:27:31.491Z,66.20
2017-09-22T22:29:57.615Z,66.20
2017-09-22T22:32:23.741Z,65.90
2017-09-22T22:34:49.861Z,66.40
2017-09-22T22:37:16.010Z,65.60
2017-09-22T22:39:42.118Z,65.20
2017-09-22T22:42:08.239Z,65.90
2017-09-22T22:44:34.375Z,66.00
2017-09-22T22:47:00.512Z,66.60
2017-09-22T22:49:26.625Z,65.80
2017-09-22T22:51:52.761Z,65.70
2017-09-22T22:54:18.871Z,65.40
2017-09-22T22:56:45.000Z,64.40
2017-09-22T22:59:11.106Z,64.80
2017-09-22T23:01:37.237Z,65.20
2017-09-22T23:04:03.400Z,65.50
2017-09-22T23:06:30.282Z,64.80
2017-09-22T23:08:56.419Z,64.80
2017-09-22T23:11:22.565Z,65.10
2017-09-22T23:13:49.439Z,64.90
2017-09-22T23:16:15.584Z,64.80
2017-09-22T23:18:41.745Z,64.60
2017-09-22T23:21:07.864Z,64.50
2017-09-22T23:23:34.000Z,64.50
2017-09-22T23:26:00.123Z,64.30
2017-09-22T23:28:26.263Z,64.00
2017-09-22T23:30:53.113Z,64.10
2017-09-22T23:33:19.257Z,64.00
2017-09-22T23:35:45.379Z,64.10
2017-09-22T23:38:11.510Z,64.00
2017-09-22T23:40:38.388Z,64.70
2017-09-22T23:43:04.523Z,65.40
2017-09-22T23:45:30.638Z,64.30
2017-09-22T23:47:57.378Z,64.90
2017-09-22T23:50:23.499Z,64.50
2017-09-22T23:52:49.743Z,65.40
2017-09-22T23:55:15.870Z,65.30
2017-09-22T23:57:42.030Z,64.60
